sensor_id;sensor_type;location;lat;lon;timestamp;pressure;altitude;pressure_sealevel;temperature;humidity
54038;BME280;39954;48.844;9.726;2022-09-30T00:00:25;95202.19;;;3.16;100.00
54038;BME280;39954;48.844;9.726;2022-09-30T00:01:27;95204.06;;;3.12;100.00
54038;BME280;39954;48.844;9.726;2022-09-30T00:02:33;95203.34;;;3.08;100.00
54038;BME280;39954;48.844;9.726;2022-09-30T00:03:35;95205.19;;;3.05;100.00
54038;BME280;39954;48.844;9.726;2022-09-30T00:04:40;95209.63;;;3.01;100.00
54038;BME280;39954;48.844;9.726;2022-09-30T00:05:44;95204.56;;;3.00;100.00
54038;BME280;39954;48.844;9.726;2022-09-30T00:06:50;95210.59;;;2.99;100.00
54038;BME280;39954;48.844;9.726;2022-09-30T00:07:55;95206.38;;;2.98;100.00
54038;BME280;39954;48.844;9.726;2022-09-30T00:08:57;95206.22;;;3.01;100.00
54038;BME280;39954;48.844;9.726;2022-09-30T00:10:03;95207.97;;;3.00;100.00
54038;BME280;39954;48.844;9.726;2022-09-30T00:11:11;95209.31;;;3.09;100.00
54038;BME280;39954;48.844;9.726;2022-09-30T00:12:17;95206.75;;;3.09;100.00
54038;BME280;39954;48.844;9.726;2022-09-30T00:13:19;95211.69;;;3.13;100.00
54038;BME280;39954;48.844;9.726;2022-09-30T00:14:23;95204.84;;;3.14;100.00
54038;BME280;39954;48.844;9.726;2022-09-30T00:15:26;95215.94;;;3.14;100.00
54038;BME280;39954;48.844;9.726;2022-09-30T00:16:36;95204.97;;;3.11;100.00
54038;BME280;39954;48.844;9.726;2022-09-30T00:17:38;95207.75;;;3.05;100.00
54038;BME280;39954;48.844;9.726;2022-09-30T00:18:43;95204.56;;;3.00;100.00
54038;BME280;39954;48.844;9.726;2022-09-30T00:19:45;95205.59;;;2.96;100.00
54038;BME280;39954;48.844;9.726;2022-09-30T00:20:50;95204.94;;;2.90;100.00
54038;BME280;39954;48.844;9.726;2022-09-30T00:21:56;95206.84;;;2.85;100.00
54038;BME280;39954;48.844;9.726;2022-09-30T00:23:01;95207.88;;;2.81;100.00
54038;BME280;39954;48.844;9.726;2022-09-30T00:24:04;95204.66;;;2.76;100.00
54038;BME280;39954;48.844;9.726;2022-09-30T00:25:09;95206.44;;;2.74;100.00
54038;BME280;39954;48.844;9.726;2022-09-30T00:26:13;95206.44;;;2.74;100.00
54038;BME280;39954;48.844;9.726;2022-09-30T00:27:19;95202.25;;;2.72;100.00
54038;BME280;39954;48.844;9.726;2022-09-30T00:28:22;95202.25;;;2.72;100.00
54038;BME280;39954;48.844;9.726;2022-09-30T00:29:26;95204.09;;;2.69;100.00
54038;BME280;39954;48.844;9.726;2022-09-30T00:30:31;95203.25;;;2.69;100.00
54038;BME280;39954;48.844;9.726;2022-09-30T00:31:34;95196.31;;;2.71;100.00
54038;BME280;39954;48.844;9.726;2022-09-30T00:32:39;95191.25;;;2.69;100.00
54038;BME280;39954;48.844;9.726;2022-09-30T00:33:41;95206.66;;;2.69;100.00
54038;BME280;39954;48.844;9.726;2022-09-30T00:35:07;95199.13;;;2.65;100.00
54038;BME280;39954;48.844;9.726;2022-09-30T00:36:11;95201.81;;;2.62;100.00
54038;BME280;39954;48.844;9.726;2022-09-30T00:37:16;95205.28;;;2.61;100.00
54038;BME280;39954;48.844;9.726;2022-09-30T00:38:20;95207.91;;;2.59;100.00
54038;BME280;39954;48.844;9.726;2022-09-30T00:39:25;95206.25;;;2.58;100.00
54038;BME280;39954;48.844;9.726;2022-09-30T00:40:30;95205.41;;;2.58;100.00
54038;BME280;39954;48.844;9.726;2022-09-30T00:41:33;95213.09;;;2.58;100.00
54038;BME280;39954;48.844;9.726;2022-09-30T00:42:39;95207.25;;;2.54;100.00
54038;BME280;39954;48.844;9.726;2022-09-30T00:43:43;95205.63;;;2.52;100.00
54038;BME280;39954;48.844;9.726;2022-09-30T00:44:54;95207.44;;;2.50;100.00
54038;BME280;39954;48.844;9.726;2022-09-30T00:45:58;95217.88;;;2.45;100.00
54038;BME280;39954;48.844;9.726;2022-09-30T00:47:03;95211.94;;;2.43;100.00
54038;BME280;39954;48.844;9.726;2022-09-30T00:48:11;95215.41;;;2.42;100.00
54038;BME280;39954;48.844;9.726;2022-09-30T00:49:22;95207.06;;;2.37;100.00
54038;BME280;39954;48.844;9.726;2022-09-30T00:50:34;95222.63;;;2.32;100.00
54038;BME280;39954;48.844;9.726;2022-09-30T00:51:46;95227.94;;;2.28;100.00
54038;BME280;39954;48.844;9.726;2022-09-30T00:52:59;95225.53;;;2.23;100.00
54038;BME280;39954;48.844;9.726;2022-09-30T00:54:09;95217.06;;;2.21;100.00
54038;BME280;39954;48.844;9.726;2022-09-30T00:55:26;95218.88;;;2.19;100.00
54038;BME280;39954;48.844;9.726;2022-09-30T00:56:32;95218.13;;;2.15;100.00
54038;BME280;39954;48.844;9.726;2022-09-30T00:57:39;95226.72;;;2.14;100.00
54038;BME280;39954;48.844;9.726;2022-09-30T00:58:43;95231.84;;;2.14;100.00
54038;BME280;39954;48.844;9.726;2022-09-30T00:59:50;95224.19;;;2.13;100.00
54038;BME280;39954;48.844;9.726;2022-09-30T01:00:52;95232.88;;;2.10;100.00
54038;BME280;39954;48.844;9.726;2022-09-30T01:01:59;95241.50;;;2.08;100.00
54038;BME280;39954;48.844;9.726;2022-09-30T01:03:03;95236.50;;;2.05;100.00
54038;BME280;39954;48.844;9.726;2022-09-30T01:04:10;95246.13;;;1.98;100.00
54038;BME280;39954;48.844;9.726;2022-09-30T01:05:14;95245.28;;;1.97;100.00
54038;BME280;39954;48.844;9.726;2022-09-30T01:06:21;95244.50;;;1.95;100.00
54038;BME280;39954;48.844;9.726;2022-09-30T01:07:23;95247.19;;;1.92;100.00
54038;BME280;39954;48.844;9.726;2022-09-30T01:08:35;95242.13;;;1.91;100.00
54038;BME280;39954;48.844;9.726;2022-09-30T01:09:40;95241.22;;;1.92;100.00
54038;BME280;39954;48.844;9.726;2022-09-30T01:10:46;95241.34;;;1.89;100.00
54038;BME280;39954;48.844;9.726;2022-09-30T01:11:48;95248.19;;;1.88;100.00
54038;BME280;39954;48.844;9.726;2022-09-30T01:12:53;95251.63;;;1.87;100.00
54038;BME280;39954;48.844;9.726;2022-09-30T01:13:58;95255.09;;;1.86;100.00
54038;BME280;39954;48.844;9.726;2022-09-30T01:15:05;95249.13;;;1.86;100.00
54038;BME280;39954;48.844;9.726;2022-09-30T01:16:19;95251.44;;;1.93;100.00
54038;BME280;39954;48.844;9.726;2022-09-30T01:17:36;95250.69;;;1.90;100.00
54038;BME280;39954;48.844;9.726;2022-09-30T01:18:51;95257.53;;;1.89;100.00
54038;BME280;39954;48.844;9.726;2022-09-30T01:20:37;95254.97;;;1.89;100.00
54038;BME280;39954;48.844;9.726;2022-09-30T01:25:09;95247.91;;;1.96;100.00
54038;BME280;39954;48.844;9.726;2022-09-30T01:30:02;95245.47;;;2.16;100.00
54038;BME280;39954;48.844;9.726;2022-09-30T01:31:21;95248.78;;;2.18;100.00
